Traders Point, Indiana
Current Conditions -  °F | °C
As of 12:53 AM on Monday 20 Oct 2014 (Local Time) from KEYE Reporting Station
Clear Clear  
Wind Chill: 45°   Ceiling: Unl
Heat Index: 47°   Visibility: 10mi
Dew Point: 41°   Wind: 5mph
Humidity: 80%   Direction: 200°SSW
Pressure: 30.03"   Gusts: NA
Location:  39.8902°N, 86.2967°W
Report Text: KEYE 200453Z AUTO 20004KT 10SM CLR 08/05 A3003 RMK AO2 SLP169 T00830050 401390056
Loading
Personal Weather Stations






























Interactive Weather Map
Tropical Storm Tracking
New forecast layout! Learn more

10-Day Weather Forecast

Advertisements
Track Severe Weather on mobile